sensor_id;sensor_type;location;lat;lon;timestamp;temperature;humidity
21318;DHT22;10818;50.830;6.524;2023-04-25T00:01:28;8.00;99.90
21318;DHT22;10818;50.830;6.524;2023-04-25T00:06:29;7.80;99.90
21318;DHT22;10818;50.830;6.524;2023-04-25T00:11:32;7.60;99.90
21318;DHT22;10818;50.830;6.524;2023-04-25T00:16:32;7.50;99.90
21318;DHT22;10818;50.830;6.524;2023-04-25T00:21:34;7.30;99.90
21318;DHT22;10818;50.830;6.524;2023-04-25T00:26:35;7.30;99.90
21318;DHT22;10818;50.830;6.524;2023-04-25T00:31:36;7.30;99.90
21318;DHT22;10818;50.830;6.524;2023-04-25T00:36:36;7.20;99.90
21318;DHT22;10818;50.830;6.524;2023-04-25T00:41:37;7.20;99.90
21318;DHT22;10818;50.830;6.524;2023-04-25T00:46:38;7.10;99.90
21318;DHT22;10818;50.830;6.524;2023-04-25T00:51:39;7.20;99.90
21318;DHT22;10818;50.830;6.524;2023-04-25T00:56:40;7.10;99.90
21318;DHT22;10818;50.830;6.524;2023-04-25T01:01:41;7.10;99.90
21318;DHT22;10818;50.830;6.524;2023-04-25T01:06:42;7.20;99.90
21318;DHT22;10818;50.830;6.524;2023-04-25T01:11:43;7.20;99.90
21318;DHT22;10818;50.830;6.524;2023-04-25T01:16:44;7.20;99.90
21318;DHT22;10818;50.830;6.524;2023-04-25T01:21:46;7.20;99.90
21318;DHT22;10818;50.830;6.524;2023-04-25T01:26:47;7.10;99.90
21318;DHT22;10818;50.830;6.524;2023-04-25T01:31:51;7.10;99.90
21318;DHT22;10818;50.830;6.524;2023-04-25T01:36:53;7.10;99.90
21318;DHT22;10818;50.830;6.524;2023-04-25T01:41:54;7.10;99.90
21318;DHT22;10818;50.830;6.524;2023-04-25T01:46:55;7.10;99.90
21318;DHT22;10818;50.830;6.524;2023-04-25T01:51:55;7.10;99.90
21318;DHT22;10818;50.830;6.524;2023-04-25T01:56:56;7.00;99.90
21318;DHT22;10818;50.830;6.524;2023-04-25T02:01:57;7.00;99.90
21318;DHT22;10818;50.830;6.524;2023-04-25T02:06:58;6.80;99.90
21318;DHT22;10818;50.830;6.524;2023-04-25T02:11:59;6.90;99.90
21318;DHT22;10818;50.830;6.524;2023-04-25T02:17:00;6.90;99.90
21318;DHT22;10818;50.830;6.524;2023-04-25T02:22:00;6.90;99.90
21318;DHT22;10818;50.830;6.524;2023-04-25T02:27:01;6.90;99.90
21318;DHT22;10818;50.830;6.524;2023-04-25T02:32:02;6.90;99.90
21318;DHT22;10818;50.830;6.524;2023-04-25T02:37:03;7.00;99.90
21318;DHT22;10818;50.830;6.524;2023-04-25T02:42:04;7.00;99.90
21318;DHT22;10818;50.830;6.524;2023-04-25T02:47:04;7.00;99.90
21318;DHT22;10818;50.830;6.524;2023-04-25T02:52:05;7.10;99.90
21318;DHT22;10818;50.830;6.524;2023-04-25T02:57:06;7.20;99.90
21318;DHT22;10818;50.830;6.524;2023-04-25T03:02:06;7.20;99.90
21318;DHT22;10818;50.830;6.524;2023-04-25T03:07:07;7.20;99.90
21318;DHT22;10818;50.830;6.524;2023-04-25T03:12:08;7.30;99.90
21318;DHT22;10818;50.830;6.524;2023-04-25T03:17:09;7.30;99.90
21318;DHT22;10818;50.830;6.524;2023-04-25T03:22:10;7.40;99.90
21318;DHT22;10818;50.830;6.524;2023-04-25T03:27:11;7.30;99.90
21318;DHT22;10818;50.830;6.524;2023-04-25T03:32:12;7.20;99.90
21318;DHT22;10818;50.830;6.524;2023-04-25T03:37:12;7.20;99.90
21318;DHT22;10818;50.830;6.524;2023-04-25T03:42:13;7.30;99.90
21318;DHT22;10818;50.830;6.524;2023-04-25T03:47:14;7.30;99.90
21318;DHT22;10818;50.830;6.524;2023-04-25T03:52:15;7.10;99.90
21318;DHT22;10818;50.830;6.524;2023-04-25T03:57:15;7.10;99.90
21318;DHT22;10818;50.830;6.524;2023-04-25T04:02:17;7.00;99.90
21318;DHT22;10818;50.830;6.524;2023-04-25T04:07:18;7.10;99.90
21318;DHT22;10818;50.830;6.524;2023-04-25T04:12:18;7.00;99.90
21318;DHT22;10818;50.830;6.524;2023-04-25T04:17:19;7.00;99.90
21318;DHT22;10818;50.830;6.524;2023-04-25T04:22:19;7.00;99.90
21318;DHT22;10818;50.830;6.524;2023-04-25T04:27:21;7.10;99.90
21318;DHT22;10818;50.830;6.524;2023-04-25T04:32:22;7.10;99.90
21318;DHT22;10818;50.830;6.524;2023-04-25T04:37:23;7.20;99.90
21318;DHT22;10818;50.830;6.524;2023-04-25T04:42:24;7.20;99.90
21318;DHT22;10818;50.830;6.524;2023-04-25T04:47:25;7.30;99.90
21318;DHT22;10818;50.830;6.524;2023-04-25T04:52:30;7.30;99.90
21318;DHT22;10818;50.830;6.524;2023-04-25T04:57:31;7.50;99.90
21318;DHT22;10818;50.830;6.524;2023-04-25T05:02:33;7.50;99.90
21318;DHT22;10818;50.830;6.524;2023-04-25T05:07:33;7.50;99.90
21318;DHT22;10818;50.830;6.524;2023-04-25T05:12:34;7.70;99.90
21318;DHT22;10818;50.830;6.524;2023-04-25T05:17:35;7.80;99.90
21318;DHT22;10818;50.830;6.524;2023-04-25T05:22:35;8.00;99.90
21318;DHT22;10818;50.830;6.524;2023-04-25T05:27:36;8.10;99.90
21318;DHT22;10818;50.830;6.524;2023-04-25T05:32:36;8.20;99.90
21318;DHT22;10818;50.830;6.524;2023-04-25T05:37:37;8.30;99.90
21318;DHT22;10818;50.830;6.524;2023-04-25T05:42:37;8.50;99.90
21318;DHT22;10818;50.830;6.524;2023-04-25T05:47:38;8.60;99.90
21318;DHT22;10818;50.830;6.524;2023-04-25T05:52:39;8.70;99.90
21318;DHT22;10818;50.830;6.524;2023-04-25T05:57:39;8.70;99.90
21318;DHT22;10818;50.830;6.524;2023-04-25T06:02:41;8.70;99.90
21318;DHT22;10818;50.830;6.524;2023-04-25T06:07:42;9.00;99.90
21318;DHT22;10818;50.830;6.524;2023-04-25T06:12:42;9.30;99.90
21318;DHT22;10818;50.830;6.524;2023-04-25T06:17:43;9.40;99.90
21318;DHT22;10818;50.830;6.524;2023-04-25T06:22:43;9.60;99.90
21318;DHT22;10818;50.830;6.524;2023-04-25T06:27:44;10.10;99.90
21318;DHT22;10818;50.830;6.524;2023-04-25T06:32:44;10.80;99.90
21318;DHT22;10818;50.830;6.524;2023-04-25T06:37:45;10.60;99.90
21318;DHT22;10818;50.830;6.524;2023-04-25T06:42:45;11.00;99.90
21318;DHT22;10818;50.830;6.524;2023-04-25T06:47:46;11.30;99.90
21318;DHT22;10818;50.830;6.524;2023-04-25T06:52:46;12.00;99.90
21318;DHT22;10818;50.830;6.524;2023-04-25T06:57:46;12.80;99.90
21318;DHT22;10818;50.830;6.524;2023-04-25T07:02:47;13.00;99.90
21318;DHT22;10818;50.830;6.524;2023-04-25T07:07:47;12.30;99.90
21318;DHT22;10818;50.830;6.524;2023-04-25T07:12:48;11.70;99.90
21318;DHT22;10818;50.830;6.524;2023-04-25T07:17:48;11.80;99.90
21318;DHT22;10818;50.830;6.524;2023-04-25T07:22:49;12.00;99.90
21318;DHT22;10818;50.830;6.524;2023-04-25T07:27:50;13.00;99.90
21318;DHT22;10818;50.830;6.524;2023-04-25T07:32:50;13.60;99.90
21318;DHT22;10818;50.830;6.524;2023-04-25T07:37:51;13.50;99.90
21318;DHT22;10818;50.830;6.524;2023-04-25T07:42:51;14.70;99.90
21318;DHT22;10818;50.830;6.524;2023-04-25T07:47:52;18.30;99.90
21318;DHT22;10818;50.830;6.524;2023-04-25T07:52:52;16.70;99.90
21318;DHT22;10818;50.830;6.524;2023-04-25T07:57:53;14.90;99.90
21318;DHT22;10818;50.830;6.524;2023-04-25T08:02:53;13.60;99.90
21318;DHT22;10818;50.830;6.524;2023-04-25T08:07:54;12.80;99.90
21318;DHT22;10818;50.830;6.524;2023-04-25T08:12:56;12.60;99.90
21318;DHT22;10818;50.830;6.524;2023-04-25T08:17:56;12.80;99.90
21318;DHT22;10818;50.830;6.524;2023-04-25T08:22:57;12.60;99.90
21318;DHT22;10818;50.830;6.524;2023-04-25T08:27:57;12.90;99.90
21318;DHT22;10818;50.830;6.524;2023-04-25T08:32:59;13.50;99.90
21318;DHT22;10818;50.830;6.524;2023-04-25T08:38:00;13.60;99.90
21318;DHT22;10818;50.830;6.524;2023-04-25T08:43:01;13.30;99.90
21318;DHT22;10818;50.830;6.524;2023-04-25T08:48:04;12.80;99.90
21318;DHT22;10818;50.830;6.524;2023-04-25T08:53:05;13.70;99.90
21318;DHT22;10818;50.830;6.524;2023-04-25T08:58:09;14.00;99.90
21318;DHT22;10818;50.830;6.524;2023-04-25T09:03:11;14.30;99.90
21318;DHT22;10818;50.830;6.524;2023-04-25T09:08:11;14.80;99.90
21318;DHT22;10818;50.830;6.524;2023-04-25T09:13:12;15.40;99.90
21318;DHT22;10818;50.830;6.524;2023-04-25T09:18:21;15.90;99.90
21318;DHT22;10818;50.830;6.524;2023-04-25T09:23:22;16.20;99.90
21318;DHT22;10818;50.830;6.524;2023-04-25T09:28:24;15.60;99.90
21318;DHT22;10818;50.830;6.524;2023-04-25T09:33:32;16.30;99.90
21318;DHT22;10818;50.830;6.524;2023-04-25T09:38:40;16.60;99.90
21318;DHT22;10818;50.830;6.524;2023-04-25T09:43:41;15.90;99.90
21318;DHT22;10818;50.830;6.524;2023-04-25T09:48:49;14.90;99.90
21318;DHT22;10818;50.830;6.524;2023-04-25T09:53:50;14.00;99.90
21318;DHT22;10818;50.830;6.524;2023-04-25T09:58:50;14.10;99.90
21318;DHT22;10818;50.830;6.524;2023-04-25T10:03:53;14.00;99.90
21318;DHT22;10818;50.830;6.524;2023-04-25T10:08:56;14.20;99.90
21318;DHT22;10818;50.830;6.524;2023-04-25T10:13:57;14.20;99.90
21318;DHT22;10818;50.830;6.524;2023-04-25T10:18:59;13.30;99.90
21318;DHT22;10818;50.830;6.524;2023-04-25T10:23:59;13.50;99.90
21318;DHT22;10818;50.830;6.524;2023-04-25T10:29:01;13.10;99.90
21318;DHT22;10818;50.830;6.524;2023-04-25T10:34:01;13.60;99.90
21318;DHT22;10818;50.830;6.524;2023-04-25T10:39:03;13.90;99.90
21318;DHT22;10818;50.830;6.524;2023-04-25T10:44:07;14.30;99.90
21318;DHT22;10818;50.830;6.524;2023-04-25T10:49:08;15.10;99.90
21318;DHT22;10818;50.830;6.524;2023-04-25T10:54:10;15.10;99.90
21318;DHT22;10818;50.830;6.524;2023-04-25T10:59:12;14.70;99.90
21318;DHT22;10818;50.830;6.524;2023-04-25T11:04:20;14.50;99.90
21318;DHT22;10818;50.830;6.524;2023-04-25T11:09:23;14.20;99.90
21318;DHT22;10818;50.830;6.524;2023-04-25T11:14:24;14.30;99.90
21318;DHT22;10818;50.830;6.524;2023-04-25T11:19:25;14.40;99.90
21318;DHT22;10818;50.830;6.524;2023-04-25T11:24:32;14.70;99.90
21318;DHT22;10818;50.830;6.524;2023-04-25T11:29:33;14.30;99.90
21318;DHT22;10818;50.830;6.524;2023-04-25T11:34:34;14.10;99.90
21318;DHT22;10818;50.830;6.524;2023-04-25T11:39:35;14.00;99.90
21318;DHT22;10818;50.830;6.524;2023-04-25T11:44:37;14.10;99.90
21318;DHT22;10818;50.830;6.524;2023-04-25T11:49:37;14.50;99.90
21318;DHT22;10818;50.830;6.524;2023-04-25T11:54:38;13.70;99.90
21318;DHT22;10818;50.830;6.524;2023-04-25T11:59:38;13.50;99.90
21318;DHT22;10818;50.830;6.524;2023-04-25T12:04:39;14.00;99.90
21318;DHT22;10818;50.830;6.524;2023-04-25T12:09:41;14.30;99.90
21318;DHT22;10818;50.830;6.524;2023-04-25T12:14:47;15.10;99.90
21318;DHT22;10818;50.830;6.524;2023-04-25T12:19:51;15.80;99.20
21318;DHT22;10818;50.830;6.524;2023-04-25T12:24:51;16.20;99.40
21318;DHT22;10818;50.830;6.524;2023-04-25T12:29:54;16.40;99.90
21318;DHT22;10818;50.830;6.524;2023-04-25T12:34:55;16.60;98.60
21318;DHT22;10818;50.830;6.524;2023-04-25T12:39:56;16.60;99.10
21318;DHT22;10818;50.830;6.524;2023-04-25T12:44:57;16.30;99.20
21318;DHT22;10818;50.830;6.524;2023-04-25T12:49:57;16.80;98.80
21318;DHT22;10818;50.830;6.524;2023-04-25T12:54:57;16.80;98.70
21318;DHT22;10818;50.830;6.524;2023-04-25T12:59:58;15.50;97.80
21318;DHT22;10818;50.830;6.524;2023-04-25T13:04:58;13.80;99.90
21318;DHT22;10818;50.830;6.524;2023-04-25T13:09:59;12.30;99.90
21318;DHT22;10818;50.830;6.524;2023-04-25T13:15:00;12.20;99.90
21318;DHT22;10818;50.830;6.524;2023-04-25T13:20:01;12.50;99.90
21318;DHT22;10818;50.830;6.524;2023-04-25T13:25:01;12.40;99.90
21318;DHT22;10818;50.830;6.524;2023-04-25T13:30:03;13.10;99.90
21318;DHT22;10818;50.830;6.524;2023-04-25T13:35:08;13.10;99.90
21318;DHT22;10818;50.830;6.524;2023-04-25T13:40:10;13.20;99.90
21318;DHT22;10818;50.830;6.524;2023-04-25T13:45:11;13.50;99.90
21318;DHT22;10818;50.830;6.524;2023-04-25T13:50:12;13.30;99.90
21318;DHT22;10818;50.830;6.524;2023-04-25T13:55:13;13.60;99.90
21318;DHT22;10818;50.830;6.524;2023-04-25T14:00:14;14.60;99.90
21318;DHT22;10818;50.830;6.524;2023-04-25T14:05:15;15.00;99.40
21318;DHT22;10818;50.830;6.524;2023-04-25T14:10:15;15.00;99.70
21318;DHT22;10818;50.830;6.524;2023-04-25T14:15:16;14.70;99.90
21318;DHT22;10818;50.830;6.524;2023-04-25T14:20:16;14.10;99.90
21318;DHT22;10818;50.830;6.524;2023-04-25T14:25:20;13.50;99.90
21318;DHT22;10818;50.830;6.524;2023-04-25T14:30:21;12.80;99.90
21318;DHT22;10818;50.830;6.524;2023-04-25T14:35:21;12.80;99.90
21318;DHT22;10818;50.830;6.524;2023-04-25T14:40:22;12.50;99.90
21318;DHT22;10818;50.830;6.524;2023-04-25T14:45:23;12.80;99.90
21318;DHT22;10818;50.830;6.524;2023-04-25T14:50:24;12.70;99.90
21318;DHT22;10818;50.830;6.524;2023-04-25T14:55:24;12.70;99.90
21318;DHT22;10818;50.830;6.524;2023-04-25T15:00:25;13.10;99.90
21318;DHT22;10818;50.830;6.524;2023-04-25T15:05:26;13.20;99.90
21318;DHT22;10818;50.830;6.524;2023-04-25T15:10:27;13.00;99.90
21318;DHT22;10818;50.830;6.524;2023-04-25T15:15:28;13.40;99.90
21318;DHT22;10818;50.830;6.524;2023-04-25T15:20:28;13.70;99.90
21318;DHT22;10818;50.830;6.524;2023-04-25T15:25:29;13.80;99.90
21318;DHT22;10818;50.830;6.524;2023-04-25T15:30:30;14.20;99.90
21318;DHT22;10818;50.830;6.524;2023-04-25T15:35:30;14.40;99.80
21318;DHT22;10818;50.830;6.524;2023-04-25T15:40:31;14.30;97.80
21318;DHT22;10818;50.830;6.524;2023-04-25T15:45:31;14.50;98.20
21318;DHT22;10818;50.830;6.524;2023-04-25T15:50:32;14.50;97.70
21318;DHT22;10818;50.830;6.524;2023-04-25T15:55:33;14.10;97.80
21318;DHT22;10818;50.830;6.524;2023-04-25T16:00:34;14.60;97.60
21318;DHT22;10818;50.830;6.524;2023-04-25T16:05:35;14.30;98.60
21318;DHT22;10818;50.830;6.524;2023-04-25T16:10:36;14.00;97.50
21318;DHT22;10818;50.830;6.524;2023-04-25T16:15:37;13.20;96.40
21318;DHT22;10818;50.830;6.524;2023-04-25T16:20:39;12.80;98.30
21318;DHT22;10818;50.830;6.524;2023-04-25T16:25:39;12.50;99.30
21318;DHT22;10818;50.830;6.524;2023-04-25T16:30:42;12.50;99.90
21318;DHT22;10818;50.830;6.524;2023-04-25T16:35:42;12.80;99.90
21318;DHT22;10818;50.830;6.524;2023-04-25T16:40:43;12.90;99.70
21318;DHT22;10818;50.830;6.524;2023-04-25T16:45:47;12.50;99.90
21318;DHT22;10818;50.830;6.524;2023-04-25T16:50:47;13.00;99.90
21318;DHT22;10818;50.830;6.524;2023-04-25T16:55:48;13.10;99.90
21318;DHT22;10818;50.830;6.524;2023-04-25T17:00:48;13.20;99.90
21318;DHT22;10818;50.830;6.524;2023-04-25T17:05:49;12.70;99.90
21318;DHT22;10818;50.830;6.524;2023-04-25T17:10:49;12.40;99.90
21318;DHT22;10818;50.830;6.524;2023-04-25T17:15:50;12.50;99.90
21318;DHT22;10818;50.830;6.524;2023-04-25T17:20:51;12.40;99.90
21318;DHT22;10818;50.830;6.524;2023-04-25T17:25:51;12.30;99.80
21318;DHT22;10818;50.830;6.524;2023-04-25T17:30:52;12.30;99.90
21318;DHT22;10818;50.830;6.524;2023-04-25T17:35:53;12.00;99.90
21318;DHT22;10818;50.830;6.524;2023-04-25T17:40:53;11.80;99.90
21318;DHT22;10818;50.830;6.524;2023-04-25T17:45:54;11.70;99.90
21318;DHT22;10818;50.830;6.524;2023-04-25T17:50:54;11.60;99.90
21318;DHT22;10818;50.830;6.524;2023-04-25T17:55:55;11.50;99.90
21318;DHT22;10818;50.830;6.524;2023-04-25T18:00:56;10.90;99.90
21318;DHT22;10818;50.830;6.524;2023-04-25T18:05:56;10.60;99.90
21318;DHT22;10818;50.830;6.524;2023-04-25T18:10:57;10.40;99.90
21318;DHT22;10818;50.830;6.524;2023-04-25T18:15:57;10.10;99.90
21318;DHT22;10818;50.830;6.524;2023-04-25T18:20:59;10.20;99.90
21318;DHT22;10818;50.830;6.524;2023-04-25T18:26:00;10.10;99.90
21318;DHT22;10818;50.830;6.524;2023-04-25T18:31:01;9.90;99.90
21318;DHT22;10818;50.830;6.524;2023-04-25T18:36:02;9.90;99.90
21318;DHT22;10818;50.830;6.524;2023-04-25T18:41:02;9.80;99.90
21318;DHT22;10818;50.830;6.524;2023-04-25T18:46:03;9.50;99.90
21318;DHT22;10818;50.830;6.524;2023-04-25T18:51:03;9.40;99.90
21318;DHT22;10818;50.830;6.524;2023-04-25T18:56:04;9.30;99.90
21318;DHT22;10818;50.830;6.524;2023-04-25T19:01:05;9.10;99.90
21318;DHT22;10818;50.830;6.524;2023-04-25T19:06:05;8.90;99.90
21318;DHT22;10818;50.830;6.524;2023-04-25T19:11:06;8.70;99.90
21318;DHT22;10818;50.830;6.524;2023-04-25T19:16:06;8.50;99.90
21318;DHT22;10818;50.830;6.524;2023-04-25T19:21:07;8.30;99.90
21318;DHT22;10818;50.830;6.524;2023-04-25T19:26:07;7.90;99.90
21318;DHT22;10818;50.830;6.524;2023-04-25T19:31:08;7.80;99.90
21318;DHT22;10818;50.830;6.524;2023-04-25T19:36:10;7.90;99.90
21318;DHT22;10818;50.830;6.524;2023-04-25T19:41:10;7.70;99.90
21318;DHT22;10818;50.830;6.524;2023-04-25T19:46:11;7.60;99.90
21318;DHT22;10818;50.830;6.524;2023-04-25T19:51:12;7.50;99.90
21318;DHT22;10818;50.830;6.524;2023-04-25T19:56:12;7.30;99.90
21318;DHT22;10818;50.830;6.524;2023-04-25T20:01:13;7.10;99.90
21318;DHT22;10818;50.830;6.524;2023-04-25T20:06:14;7.10;99.90
21318;DHT22;10818;50.830;6.524;2023-04-25T20:11:15;7.00;99.90
21318;DHT22;10818;50.830;6.524;2023-04-25T20:16:15;7.10;99.90
21318;DHT22;10818;50.830;6.524;2023-04-25T20:21:18;7.30;99.90
21318;DHT22;10818;50.830;6.524;2023-04-25T20:26:19;7.40;99.90
21318;DHT22;10818;50.830;6.524;2023-04-25T20:31:20;7.50;99.90
21318;DHT22;10818;50.830;6.524;2023-04-25T20:36:21;7.50;99.90
21318;DHT22;10818;50.830;6.524;2023-04-25T20:41:21;7.50;99.90
21318;DHT22;10818;50.830;6.524;2023-04-25T20:46:22;7.40;99.90
21318;DHT22;10818;50.830;6.524;2023-04-25T20:51:22;7.30;99.90
21318;DHT22;10818;50.830;6.524;2023-04-25T20:56:23;7.30;99.90
21318;DHT22;10818;50.830;6.524;2023-04-25T21:01:24;7.20;99.90
21318;DHT22;10818;50.830;6.524;2023-04-25T21:06:25;7.20;99.90
21318;DHT22;10818;50.830;6.524;2023-04-25T21:11:26;7.10;99.90
21318;DHT22;10818;50.830;6.524;2023-04-25T21:16:27;7.20;99.90
21318;DHT22;10818;50.830;6.524;2023-04-25T21:21:27;7.30;99.90
21318;DHT22;10818;50.830;6.524;2023-04-25T21:26:28;7.30;99.90
21318;DHT22;10818;50.830;6.524;2023-04-25T21:31:28;7.40;99.90
21318;DHT22;10818;50.830;6.524;2023-04-25T21:36:29;7.30;99.90
21318;DHT22;10818;50.830;6.524;2023-04-25T21:41:29;7.20;99.90
21318;DHT22;10818;50.830;6.524;2023-04-25T21:46:30;7.30;99.90
21318;DHT22;10818;50.830;6.524;2023-04-25T21:51:30;7.40;99.90
21318;DHT22;10818;50.830;6.524;2023-04-25T21:56:32;7.40;99.90
21318;DHT22;10818;50.830;6.524;2023-04-25T22:01:32;7.40;99.90
21318;DHT22;10818;50.830;6.524;2023-04-25T22:06:33;7.40;99.90
21318;DHT22;10818;50.830;6.524;2023-04-25T22:11:33;7.40;99.90
21318;DHT22;10818;50.830;6.524;2023-04-25T22:16:35;7.20;99.90
21318;DHT22;10818;50.830;6.524;2023-04-25T22:21:37;7.00;99.90
21318;DHT22;10818;50.830;6.524;2023-04-25T22:26:37;6.80;99.90
21318;DHT22;10818;50.830;6.524;2023-04-25T22:31:38;6.70;99.90
21318;DHT22;10818;50.830;6.524;2023-04-25T22:36:39;6.60;99.90
21318;DHT22;10818;50.830;6.524;2023-04-25T22:41:39;6.30;99.90
21318;DHT22;10818;50.830;6.524;2023-04-25T22:46:40;6.00;99.90
21318;DHT22;10818;50.830;6.524;2023-04-25T22:51:41;5.80;99.90
21318;DHT22;10818;50.830;6.524;2023-04-25T22:56:42;5.60;99.90
21318;DHT22;10818;50.830;6.524;2023-04-25T23:01:43;5.80;99.90
21318;DHT22;10818;50.830;6.524;2023-04-25T23:06:44;5.70;99.90
21318;DHT22;10818;50.830;6.524;2023-04-25T23:11:45;5.60;99.90
21318;DHT22;10818;50.830;6.524;2023-04-25T23:16:45;5.60;99.90
21318;DHT22;10818;50.830;6.524;2023-04-25T23:21:46;5.50;99.90
21318;DHT22;10818;50.830;6.524;2023-04-25T23:26:46;5.40;99.90
21318;DHT22;10818;50.830;6.524;2023-04-25T23:31:47;5.30;99.90
21318;DHT22;10818;50.830;6.524;2023-04-25T23:36:47;5.10;99.90
21318;DHT22;10818;50.830;6.524;2023-04-25T23:41:48;5.20;99.90
21318;DHT22;10818;50.830;6.524;2023-04-25T23:46:48;5.10;99.90
21318;DHT22;10818;50.830;6.524;2023-04-25T23:51:49;5.00;99.90
21318;DHT22;10818;50.830;6.524;2023-04-25T23:56:49;5.00;99.90
